sensor_id;sensor_type;location;lat;lon;timestamp;P1;durP1;ratioP1;P2;durP2;ratioP2
69678;SDS011;56915;52.046;4.854;2023-02-28T00:01:26;4.37;;;1.60;;
69678;SDS011;56915;52.046;4.854;2023-02-28T00:03:53;3.97;;;1.77;;
69678;SDS011;56915;52.046;4.854;2023-02-28T00:06:20;4.30;;;1.80;;
69678;SDS011;56915;52.046;4.854;2023-02-28T00:08:47;3.80;;;1.75;;
69678;SDS011;56915;52.046;4.854;2023-02-28T00:11:14;6.43;;;1.65;;
69678;SDS011;56915;52.046;4.854;2023-02-28T00:13:43;4.83;;;1.57;;
69678;SDS011;56915;52.046;4.854;2023-02-28T00:16:14;5.35;;;1.63;;
69678;SDS011;56915;52.046;4.854;2023-02-28T00:18:46;4.88;;;1.65;;
69678;SDS011;56915;52.046;4.854;2023-02-28T00:21:14;3.45;;;1.75;;
69678;SDS011;56915;52.046;4.854;2023-02-28T00:23:42;5.30;;;1.58;;
69678;SDS011;56915;52.046;4.854;2023-02-28T00:26:09;4.63;;;1.50;;
69678;SDS011;56915;52.046;4.854;2023-02-28T00:28:36;4.82;;;1.58;;
69678;SDS011;56915;52.046;4.854;2023-02-28T00:31:03;4.93;;;1.52;;
69678;SDS011;56915;52.046;4.854;2023-02-28T00:33:31;5.18;;;1.40;;
69678;SDS011;56915;52.046;4.854;2023-02-28T00:36:08;4.57;;;1.52;;
69678;SDS011;56915;52.046;4.854;2023-02-28T00:38:36;3.80;;;1.43;;
69678;SDS011;56915;52.046;4.854;2023-02-28T00:41:04;3.65;;;1.23;;
69678;SDS011;56915;52.046;4.854;2023-02-28T00:43:32;3.40;;;1.50;;
69678;SDS011;56915;52.046;4.854;2023-02-28T00:46:03;3.97;;;1.40;;
69678;SDS011;56915;52.046;4.854;2023-02-28T00:48:31;3.38;;;1.30;;
69678;SDS011;56915;52.046;4.854;2023-02-28T00:50:57;4.43;;;1.30;;
69678;SDS011;56915;52.046;4.854;2023-02-28T00:53:24;5.97;;;1.40;;
69678;SDS011;56915;52.046;4.854;2023-02-28T00:55:53;3.08;;;1.40;;
69678;SDS011;56915;52.046;4.854;2023-02-28T00:58:20;4.10;;;1.55;;
69678;SDS011;56915;52.046;4.854;2023-02-28T01:00:47;4.03;;;1.45;;
69678;SDS011;56915;52.046;4.854;2023-02-28T01:03:16;6.10;;;1.33;;
69678;SDS011;56915;52.046;4.854;2023-02-28T01:05:43;5.13;;;1.58;;
69678;SDS011;56915;52.046;4.854;2023-02-28T01:08:11;3.55;;;1.58;;
69678;SDS011;56915;52.046;4.854;2023-02-28T01:10:39;3.70;;;1.70;;
69678;SDS011;56915;52.046;4.854;2023-02-28T01:13:07;2.67;;;1.25;;
69678;SDS011;56915;52.046;4.854;2023-02-28T01:15:34;3.17;;;1.50;;
69678;SDS011;56915;52.046;4.854;2023-02-28T01:18:01;4.80;;;1.70;;
69678;SDS011;56915;52.046;4.854;2023-02-28T01:20:28;4.43;;;1.70;;
69678;SDS011;56915;52.046;4.854;2023-02-28T01:22:54;5.57;;;1.30;;
69678;SDS011;56915;52.046;4.854;2023-02-28T01:25:21;4.82;;;1.80;;
69678;SDS011;56915;52.046;4.854;2023-02-28T01:27:48;3.73;;;1.67;;
69678;SDS011;56915;52.046;4.854;2023-02-28T01:30:15;3.42;;;1.60;;
69678;SDS011;56915;52.046;4.854;2023-02-28T01:32:42;3.22;;;1.38;;
69678;SDS011;56915;52.046;4.854;2023-02-28T01:35:08;5.05;;;1.88;;
69678;SDS011;56915;52.046;4.854;2023-02-28T01:37:35;3.53;;;1.70;;
69678;SDS011;56915;52.046;4.854;2023-02-28T01:40:02;6.57;;;2.07;;
69678;SDS011;56915;52.046;4.854;2023-02-28T01:42:29;4.63;;;1.80;;
69678;SDS011;56915;52.046;4.854;2023-02-28T01:47:55;9.50;;;1.90;;
69678;SDS011;56915;52.046;4.854;2023-02-28T01:50:33;3.80;;;1.92;;
69678;SDS011;56915;52.046;4.854;2023-02-28T01:53:04;7.07;;;1.80;;
69678;SDS011;56915;52.046;4.854;2023-02-28T01:55:34;4.70;;;1.50;;
69678;SDS011;56915;52.046;4.854;2023-02-28T01:58:04;3.38;;;1.70;;
69678;SDS011;56915;52.046;4.854;2023-02-28T02:00:33;3.40;;;1.40;;
69678;SDS011;56915;52.046;4.854;2023-02-28T02:03:01;5.05;;;1.70;;
69678;SDS011;56915;52.046;4.854;2023-02-28T02:05:36;4.50;;;1.87;;
69678;SDS011;56915;52.046;4.854;2023-02-28T02:08:05;4.93;;;1.80;;
69678;SDS011;56915;52.046;4.854;2023-02-28T02:10:46;8.45;;;1.98;;
69678;SDS011;56915;52.046;4.854;2023-02-28T02:18:40;5.53;;;1.70;;
69678;SDS011;56915;52.046;4.854;2023-02-28T02:30:08;7.00;;;1.80;;
69678;SDS011;56915;52.046;4.854;2023-02-28T02:36:17;5.55;;;2.00;;
69678;SDS011;56915;52.046;4.854;2023-02-28T02:38:52;4.63;;;1.67;;
69678;SDS011;56915;52.046;4.854;2023-02-28T02:44:23;5.15;;;1.95;;
69678;SDS011;56915;52.046;4.854;2023-02-28T02:46:54;3.93;;;1.63;;
69678;SDS011;56915;52.046;4.854;2023-02-28T02:49:35;3.88;;;2.03;;
69678;SDS011;56915;52.046;4.854;2023-02-28T02:52:06;5.65;;;1.90;;
69678;SDS011;56915;52.046;4.854;2023-02-28T02:54:36;4.20;;;1.90;;
69678;SDS011;56915;52.046;4.854;2023-02-28T02:57:11;4.53;;;1.90;;
69678;SDS011;56915;52.046;4.854;2023-02-28T02:59:43;3.27;;;1.70;;
69678;SDS011;56915;52.046;4.854;2023-02-28T03:02:12;3.78;;;2.03;;
69678;SDS011;56915;52.046;4.854;2023-02-28T03:04:42;4.30;;;1.70;;
69678;SDS011;56915;52.046;4.854;2023-02-28T03:07:12;4.25;;;1.90;;
69678;SDS011;56915;52.046;4.854;2023-02-28T03:09:38;3.92;;;1.45;;
69678;SDS011;56915;52.046;4.854;2023-02-28T03:12:06;2.70;;;1.20;;
69678;SDS011;56915;52.046;4.854;2023-02-28T03:17:32;4.55;;;1.80;;
69678;SDS011;56915;52.046;4.854;2023-02-28T03:20:12;5.50;;;1.50;;
69678;SDS011;56915;52.046;4.854;2023-02-28T03:23:14;4.45;;;1.95;;
69678;SDS011;56915;52.046;4.854;2023-02-28T03:28:27;5.25;;;1.92;;
69678;SDS011;56915;52.046;4.854;2023-02-28T03:33:39;4.82;;;1.88;;
69678;SDS011;56915;52.046;4.854;2023-02-28T03:36:13;3.63;;;1.98;;
69678;SDS011;56915;52.046;4.854;2023-02-28T03:38:47;6.60;;;1.80;;
69678;SDS011;56915;52.046;4.854;2023-02-28T03:41:31;6.18;;;2.03;;
69678;SDS011;56915;52.046;4.854;2023-02-28T03:44:12;7.40;;;2.42;;
69678;SDS011;56915;52.046;4.854;2023-02-28T03:46:44;5.93;;;2.30;;
69678;SDS011;56915;52.046;4.854;2023-02-28T03:49:16;4.68;;;2.20;;
69678;SDS011;56915;52.046;4.854;2023-02-28T03:51:48;5.97;;;2.10;;
69678;SDS011;56915;52.046;4.854;2023-02-28T03:54:22;5.75;;;2.00;;
69678;SDS011;56915;52.046;4.854;2023-02-28T04:00:17;5.70;;;2.10;;
69678;SDS011;56915;52.046;4.854;2023-02-28T04:02:47;3.85;;;2.15;;
69678;SDS011;56915;52.046;4.854;2023-02-28T04:05:19;7.30;;;2.40;;
69678;SDS011;56915;52.046;4.854;2023-02-28T04:07:47;5.50;;;2.35;;
69678;SDS011;56915;52.046;4.854;2023-02-28T04:10:14;6.70;;;2.75;;
69678;SDS011;56915;52.046;4.854;2023-02-28T04:12:42;8.10;;;2.70;;
69678;SDS011;56915;52.046;4.854;2023-02-28T04:15:09;7.30;;;2.70;;
69678;SDS011;56915;52.046;4.854;2023-02-28T04:17:37;6.30;;;2.67;;
69678;SDS011;56915;52.046;4.854;2023-02-28T04:20:04;6.68;;;2.45;;
69678;SDS011;56915;52.046;4.854;2023-02-28T04:22:35;5.72;;;2.67;;
69678;SDS011;56915;52.046;4.854;2023-02-28T04:25:03;8.23;;;2.80;;
69678;SDS011;56915;52.046;4.854;2023-02-28T04:27:31;7.00;;;2.72;;
69678;SDS011;56915;52.046;4.854;2023-02-28T04:29:58;5.97;;;3.20;;
69678;SDS011;56915;52.046;4.854;2023-02-28T04:32:25;6.30;;;2.90;;
69678;SDS011;56915;52.046;4.854;2023-02-28T04:34:52;6.50;;;2.65;;
69678;SDS011;56915;52.046;4.854;2023-02-28T04:37:19;5.65;;;3.00;;
69678;SDS011;56915;52.046;4.854;2023-02-28T04:39:46;7.22;;;2.75;;
69678;SDS011;56915;52.046;4.854;2023-02-28T04:42:13;8.70;;;3.07;;
69678;SDS011;56915;52.046;4.854;2023-02-28T04:44:40;6.82;;;3.22;;
69678;SDS011;56915;52.046;4.854;2023-02-28T04:47:06;6.70;;;3.38;;
69678;SDS011;56915;52.046;4.854;2023-02-28T04:49:33;7.07;;;3.42;;
69678;SDS011;56915;52.046;4.854;2023-02-28T04:52:01;6.75;;;3.35;;
69678;SDS011;56915;52.046;4.854;2023-02-28T04:54:28;7.97;;;3.43;;
69678;SDS011;56915;52.046;4.854;2023-02-28T04:56:55;6.47;;;3.53;;
69678;SDS011;56915;52.046;4.854;2023-02-28T04:59:22;7.22;;;3.63;;
69678;SDS011;56915;52.046;4.854;2023-02-28T05:01:49;9.23;;;3.78;;
69678;SDS011;56915;52.046;4.854;2023-02-28T05:04:16;8.80;;;3.85;;
69678;SDS011;56915;52.046;4.854;2023-02-28T05:06:43;11.07;;;4.17;;
69678;SDS011;56915;52.046;4.854;2023-02-28T05:09:09;9.43;;;4.00;;
69678;SDS011;56915;52.046;4.854;2023-02-28T05:11:39;11.40;;;4.30;;
69678;SDS011;56915;52.046;4.854;2023-02-28T05:14:09;12.32;;;4.70;;
69678;SDS011;56915;52.046;4.854;2023-02-28T05:16:38;8.05;;;4.30;;
69678;SDS011;56915;52.046;4.854;2023-02-28T05:19:04;9.57;;;4.33;;
69678;SDS011;56915;52.046;4.854;2023-02-28T05:21:33;10.07;;;4.20;;
69678;SDS011;56915;52.046;4.854;2023-02-28T05:24:02;9.98;;;4.55;;
69678;SDS011;56915;52.046;4.854;2023-02-28T05:26:31;7.57;;;4.10;;
69678;SDS011;56915;52.046;4.854;2023-02-28T05:29:01;12.57;;;4.53;;
69678;SDS011;56915;52.046;4.854;2023-02-28T05:31:27;13.03;;;4.77;;
69678;SDS011;56915;52.046;4.854;2023-02-28T05:33:55;8.68;;;4.50;;
69678;SDS011;56915;52.046;4.854;2023-02-28T05:36:21;7.72;;;4.38;;
69678;SDS011;56915;52.046;4.854;2023-02-28T05:38:49;8.50;;;4.30;;
69678;SDS011;56915;52.046;4.854;2023-02-28T05:41:16;6.32;;;3.47;;
69678;SDS011;56915;52.046;4.854;2023-02-28T05:43:45;7.30;;;3.53;;
69678;SDS011;56915;52.046;4.854;2023-02-28T05:46:13;6.15;;;2.95;;
69678;SDS011;56915;52.046;4.854;2023-02-28T05:48:42;4.85;;;2.90;;
69678;SDS011;56915;52.046;4.854;2023-02-28T05:51:12;7.95;;;3.15;;
69678;SDS011;56915;52.046;4.854;2023-02-28T05:53:38;7.50;;;3.10;;
69678;SDS011;56915;52.046;4.854;2023-02-28T05:56:05;5.83;;;2.90;;
69678;SDS011;56915;52.046;4.854;2023-02-28T05:58:32;7.65;;;2.90;;
69678;SDS011;56915;52.046;4.854;2023-02-28T06:01:01;6.60;;;2.97;;
69678;SDS011;56915;52.046;4.854;2023-02-28T06:03:47;7.25;;;2.88;;
69678;SDS011;56915;52.046;4.854;2023-02-28T06:06:13;6.20;;;2.97;;
69678;SDS011;56915;52.046;4.854;2023-02-28T06:08:40;5.93;;;3.10;;
69678;SDS011;56915;52.046;4.854;2023-02-28T06:11:09;7.07;;;2.97;;
69678;SDS011;56915;52.046;4.854;2023-02-28T06:13:36;5.65;;;2.90;;
69678;SDS011;56915;52.046;4.854;2023-02-28T06:16:03;9.88;;;3.00;;
69678;SDS011;56915;52.046;4.854;2023-02-28T06:18:30;7.55;;;3.13;;
69678;SDS011;56915;52.046;4.854;2023-02-28T06:20:57;7.13;;;3.00;;
69678;SDS011;56915;52.046;4.854;2023-02-28T06:23:24;5.53;;;3.13;;
69678;SDS011;56915;52.046;4.854;2023-02-28T06:25:51;9.65;;;3.13;;
69678;SDS011;56915;52.046;4.854;2023-02-28T06:28:19;6.05;;;3.20;;
69678;SDS011;56915;52.046;4.854;2023-02-28T06:30:46;10.13;;;3.10;;
69678;SDS011;56915;52.046;4.854;2023-02-28T06:33:12;6.10;;;2.90;;
69678;SDS011;56915;52.046;4.854;2023-02-28T06:35:39;7.13;;;3.53;;
69678;SDS011;56915;52.046;4.854;2023-02-28T06:38:09;6.68;;;3.20;;
69678;SDS011;56915;52.046;4.854;2023-02-28T06:40:36;5.88;;;3.10;;
69678;SDS011;56915;52.046;4.854;2023-02-28T06:43:03;7.28;;;3.42;;
69678;SDS011;56915;52.046;4.854;2023-02-28T06:45:30;6.77;;;3.13;;
69678;SDS011;56915;52.046;4.854;2023-02-28T06:47:57;7.00;;;3.40;;
69678;SDS011;56915;52.046;4.854;2023-02-28T06:50:24;6.15;;;3.33;;
69678;SDS011;56915;52.046;4.854;2023-02-28T06:52:51;7.35;;;3.70;;
69678;SDS011;56915;52.046;4.854;2023-02-28T06:55:20;6.63;;;3.47;;
69678;SDS011;56915;52.046;4.854;2023-02-28T06:57:46;7.77;;;3.70;;
69678;SDS011;56915;52.046;4.854;2023-02-28T07:00:14;6.40;;;3.47;;
69678;SDS011;56915;52.046;4.854;2023-02-28T07:02:41;6.50;;;3.75;;
69678;SDS011;56915;52.046;4.854;2023-02-28T07:05:08;8.60;;;3.63;;
69678;SDS011;56915;52.046;4.854;2023-02-28T07:07:35;6.00;;;3.70;;
69678;SDS011;56915;52.046;4.854;2023-02-28T07:10:04;7.27;;;3.57;;
69678;SDS011;56915;52.046;4.854;2023-02-28T07:12:31;6.85;;;3.78;;
69678;SDS011;56915;52.046;4.854;2023-02-28T07:14:58;7.60;;;3.90;;
69678;SDS011;56915;52.046;4.854;2023-02-28T07:17:25;8.45;;;4.10;;
69678;SDS011;56915;52.046;4.854;2023-02-28T07:19:52;8.10;;;3.97;;
69678;SDS011;56915;52.046;4.854;2023-02-28T07:22:18;6.40;;;3.63;;
69678;SDS011;56915;52.046;4.854;2023-02-28T07:24:45;8.52;;;3.83;;
69678;SDS011;56915;52.046;4.854;2023-02-28T07:27:12;6.97;;;3.80;;
69678;SDS011;56915;52.046;4.854;2023-02-28T07:29:49;7.60;;;3.78;;
69678;SDS011;56915;52.046;4.854;2023-02-28T07:32:16;7.53;;;3.83;;
69678;SDS011;56915;52.046;4.854;2023-02-28T07:34:44;9.67;;;3.70;;
69678;SDS011;56915;52.046;4.854;2023-02-28T07:37:11;7.25;;;3.85;;
69678;SDS011;56915;52.046;4.854;2023-02-28T07:39:38;10.40;;;4.57;;
69678;SDS011;56915;52.046;4.854;2023-02-28T07:42:05;7.93;;;3.70;;
69678;SDS011;56915;52.046;4.854;2023-02-28T07:44:32;7.10;;;4.00;;
69678;SDS011;56915;52.046;4.854;2023-02-28T07:46:59;6.67;;;3.37;;
69678;SDS011;56915;52.046;4.854;2023-02-28T07:49:26;7.30;;;3.92;;
69678;SDS011;56915;52.046;4.854;2023-02-28T07:51:53;8.40;;;4.10;;
69678;SDS011;56915;52.046;4.854;2023-02-28T07:54:19;7.70;;;3.92;;
69678;SDS011;56915;52.046;4.854;2023-02-28T07:56:46;7.30;;;4.15;;
69678;SDS011;56915;52.046;4.854;2023-02-28T07:59:13;7.13;;;3.33;;
69678;SDS011;56915;52.046;4.854;2023-02-28T08:01:40;11.63;;;4.68;;
69678;SDS011;56915;52.046;4.854;2023-02-28T08:04:07;7.32;;;4.00;;
69678;SDS011;56915;52.046;4.854;2023-02-28T08:06:33;7.07;;;3.70;;
69678;SDS011;56915;52.046;4.854;2023-02-28T08:09:01;10.18;;;4.40;;
69678;SDS011;56915;52.046;4.854;2023-02-28T08:11:28;9.17;;;4.07;;
69678;SDS011;56915;52.046;4.854;2023-02-28T08:13:55;8.38;;;4.07;;
69678;SDS011;56915;52.046;4.854;2023-02-28T08:16:22;9.57;;;4.60;;
69678;SDS011;56915;52.046;4.854;2023-02-28T08:18:52;10.38;;;4.75;;
69678;SDS011;56915;52.046;4.854;2023-02-28T08:21:20;9.05;;;4.78;;
69678;SDS011;56915;52.046;4.854;2023-02-28T08:23:47;10.40;;;4.50;;
69678;SDS011;56915;52.046;4.854;2023-02-28T08:26:16;10.48;;;4.68;;
69678;SDS011;56915;52.046;4.854;2023-02-28T08:28:43;9.85;;;4.50;;
69678;SDS011;56915;52.046;4.854;2023-02-28T08:31:12;10.38;;;5.05;;
69678;SDS011;56915;52.046;4.854;2023-02-28T08:33:40;9.07;;;4.85;;
69678;SDS011;56915;52.046;4.854;2023-02-28T08:36:08;12.97;;;5.03;;
69678;SDS011;56915;52.046;4.854;2023-02-28T08:38:36;12.20;;;5.38;;
69678;SDS011;56915;52.046;4.854;2023-02-28T08:41:05;10.95;;;4.72;;
69678;SDS011;56915;52.046;4.854;2023-02-28T08:43:34;11.25;;;5.32;;
69678;SDS011;56915;52.046;4.854;2023-02-28T08:46:02;12.77;;;5.70;;
69678;SDS011;56915;52.046;4.854;2023-02-28T08:48:31;12.90;;;5.63;;
69678;SDS011;56915;52.046;4.854;2023-02-28T08:50:59;11.93;;;5.28;;
69678;SDS011;56915;52.046;4.854;2023-02-28T08:53:34;11.95;;;5.15;;
69678;SDS011;56915;52.046;4.854;2023-02-28T08:56:11;10.63;;;4.70;;
69678;SDS011;56915;52.046;4.854;2023-02-28T08:58:40;11.90;;;4.97;;
69678;SDS011;56915;52.046;4.854;2023-02-28T09:01:08;10.37;;;4.97;;
69678;SDS011;56915;52.046;4.854;2023-02-28T09:03:38;11.43;;;4.95;;
69678;SDS011;56915;52.046;4.854;2023-02-28T09:06:07;10.82;;;4.78;;
69678;SDS011;56915;52.046;4.854;2023-02-28T09:08:35;10.38;;;4.70;;
69678;SDS011;56915;52.046;4.854;2023-02-28T09:11:02;9.27;;;4.40;;
69678;SDS011;56915;52.046;4.854;2023-02-28T09:13:29;11.23;;;4.30;;
69678;SDS011;56915;52.046;4.854;2023-02-28T09:15:58;10.80;;;4.30;;
69678;SDS011;56915;52.046;4.854;2023-02-28T09:18:26;9.18;;;3.90;;
69678;SDS011;56915;52.046;4.854;2023-02-28T09:20:53;8.25;;;3.95;;
69678;SDS011;56915;52.046;4.854;2023-02-28T09:23:20;10.05;;;4.47;;
69678;SDS011;56915;52.046;4.854;2023-02-28T09:25:48;9.13;;;4.60;;
69678;SDS011;56915;52.046;4.854;2023-02-28T09:28:18;9.82;;;5.00;;
69678;SDS011;56915;52.046;4.854;2023-02-28T09:30:46;9.27;;;5.03;;
69678;SDS011;56915;52.046;4.854;2023-02-28T09:33:17;9.25;;;5.30;;
69678;SDS011;56915;52.046;4.854;2023-02-28T09:35:50;10.27;;;5.20;;
69678;SDS011;56915;52.046;4.854;2023-02-28T09:38:23;8.70;;;5.23;;
69678;SDS011;56915;52.046;4.854;2023-02-28T09:40:51;8.98;;;4.82;;
69678;SDS011;56915;52.046;4.854;2023-02-28T09:43:23;9.20;;;4.80;;
69678;SDS011;56915;52.046;4.854;2023-02-28T09:46:02;8.15;;;4.18;;
69678;SDS011;56915;52.046;4.854;2023-02-28T09:48:44;8.45;;;4.40;;
69678;SDS011;56915;52.046;4.854;2023-02-28T09:51:21;7.33;;;4.10;;
69678;SDS011;56915;52.046;4.854;2023-02-28T09:54:00;7.38;;;4.43;;
69678;SDS011;56915;52.046;4.854;2023-02-28T09:56:29;7.93;;;4.40;;
69678;SDS011;56915;52.046;4.854;2023-02-28T09:59:10;8.18;;;4.05;;
69678;SDS011;56915;52.046;4.854;2023-02-28T10:10:23;5.40;;;3.00;;
69678;SDS011;56915;52.046;4.854;2023-02-28T10:12:52;3.58;;;2.53;;
69678;SDS011;56915;52.046;4.854;2023-02-28T10:15:21;4.53;;;2.50;;
69678;SDS011;56915;52.046;4.854;2023-02-28T10:17:54;4.23;;;2.63;;
69678;SDS011;56915;52.046;4.854;2023-02-28T10:20:35;4.10;;;2.65;;
69678;SDS011;56915;52.046;4.854;2023-02-28T10:23:23;4.38;;;2.83;;
69678;SDS011;56915;52.046;4.854;2023-02-28T10:26:01;5.35;;;2.60;;
69678;SDS011;56915;52.046;4.854;2023-02-28T10:28:38;5.70;;;2.70;;
69678;SDS011;56915;52.046;4.854;2023-02-28T10:31:06;5.33;;;2.70;;
69678;SDS011;56915;52.046;4.854;2023-02-28T10:33:42;5.80;;;2.55;;
69678;SDS011;56915;52.046;4.854;2023-02-28T10:36:12;5.05;;;2.60;;
69678;SDS011;56915;52.046;4.854;2023-02-28T10:38:43;5.10;;;2.53;;
69678;SDS011;56915;52.046;4.854;2023-02-28T10:41:15;5.97;;;2.60;;
69678;SDS011;56915;52.046;4.854;2023-02-28T10:43:53;5.03;;;2.60;;
69678;SDS011;56915;52.046;4.854;2023-02-28T10:46:39;5.32;;;2.72;;
69678;SDS011;56915;52.046;4.854;2023-02-28T10:49:18;4.72;;;2.17;;
69678;SDS011;56915;52.046;4.854;2023-02-28T10:51:49;2.20;;;1.80;;
69678;SDS011;56915;52.046;4.854;2023-02-28T10:54:24;3.47;;;2.00;;
69678;SDS011;56915;52.046;4.854;2023-02-28T11:00:07;3.33;;;2.38;;
69678;SDS011;56915;52.046;4.854;2023-02-28T11:02:39;3.35;;;2.00;;
69678;SDS011;56915;52.046;4.854;2023-02-28T11:07:57;4.72;;;2.40;;
69678;SDS011;56915;52.046;4.854;2023-02-28T11:10:37;3.40;;;2.40;;
69678;SDS011;56915;52.046;4.854;2023-02-28T11:13:04;3.60;;;2.10;;
69678;SDS011;56915;52.046;4.854;2023-02-28T11:15:32;3.83;;;2.38;;
69678;SDS011;56915;52.046;4.854;2023-02-28T11:20:39;4.97;;;2.20;;
69678;SDS011;56915;52.046;4.854;2023-02-28T11:23:06;3.77;;;2.03;;
69678;SDS011;56915;52.046;4.854;2023-02-28T11:25:40;3.00;;;2.15;;
69678;SDS011;56915;52.046;4.854;2023-02-28T11:28:25;4.68;;;2.10;;
69678;SDS011;56915;52.046;4.854;2023-02-28T11:31:01;2.60;;;1.90;;
69678;SDS011;56915;52.046;4.854;2023-02-28T11:34:20;3.22;;;2.00;;
69678;SDS011;56915;52.046;4.854;2023-02-28T11:36:29;2.90;;;2.00;;
69678;SDS011;56915;52.046;4.854;2023-02-28T11:39:03;3.58;;;2.10;;
69678;SDS011;56915;52.046;4.854;2023-02-28T11:44:41;4.03;;;1.90;;
69678;SDS011;56915;52.046;4.854;2023-02-28T11:47:34;2.60;;;2.00;;
69678;SDS011;56915;52.046;4.854;2023-02-28T12:12:29;2.38;;;1.92;;
69678;SDS011;56915;52.046;4.854;2023-02-28T12:20:28;2.58;;;1.90;;
69678;SDS011;56915;52.046;4.854;2023-02-28T12:23:23;2.00;;;1.60;;
69678;SDS011;56915;52.046;4.854;2023-02-28T12:28:38;3.20;;;1.90;;
69678;SDS011;56915;52.046;4.854;2023-02-28T12:31:33;2.90;;;2.00;;
69678;SDS011;56915;52.046;4.854;2023-02-28T12:34:03;3.63;;;1.90;;
69678;SDS011;56915;52.046;4.854;2023-02-28T12:36:32;5.45;;;2.20;;
69678;SDS011;56915;52.046;4.854;2023-02-28T12:39:12;4.13;;;2.20;;
69678;SDS011;56915;52.046;4.854;2023-02-28T12:42:03;3.28;;;2.00;;
69678;SDS011;56915;52.046;4.854;2023-02-28T12:47:50;4.20;;;1.83;;
69678;SDS011;56915;52.046;4.854;2023-02-28T12:50:21;4.60;;;2.00;;
69678;SDS011;56915;52.046;4.854;2023-02-28T13:01:15;3.35;;;2.33;;
69678;SDS011;56915;52.046;4.854;2023-02-28T13:06:37;4.03;;;1.98;;
69678;SDS011;56915;52.046;4.854;2023-02-28T13:09:17;4.07;;;1.90;;
69678;SDS011;56915;52.046;4.854;2023-02-28T13:11:46;3.63;;;2.00;;
69678;SDS011;56915;52.046;4.854;2023-02-28T13:19:23;5.45;;;2.00;;
69678;SDS011;56915;52.046;4.854;2023-02-28T13:21:54;3.67;;;2.08;;
69678;SDS011;56915;52.046;4.854;2023-02-28T13:24:42;2.67;;;1.60;;
69678;SDS011;56915;52.046;4.854;2023-02-28T13:29:44;3.80;;;1.90;;
69678;SDS011;56915;52.046;4.854;2023-02-28T13:34:39;3.22;;;2.00;;
69678;SDS011;56915;52.046;4.854;2023-02-28T13:55:44;2.45;;;1.63;;
69678;SDS011;56915;52.046;4.854;2023-02-28T13:58:37;4.57;;;1.67;;
69678;SDS011;56915;52.046;4.854;2023-02-28T14:06:38;3.53;;;1.70;;
69678;SDS011;56915;52.046;4.854;2023-02-28T14:11:54;2.45;;;1.70;;
69678;SDS011;56915;52.046;4.854;2023-02-28T14:17:01;3.17;;;1.57;;
69678;SDS011;56915;52.046;4.854;2023-02-28T14:19:34;4.25;;;2.08;;
69678;SDS011;56915;52.046;4.854;2023-02-28T14:25:04;2.53;;;1.75;;
69678;SDS011;56915;52.046;4.854;2023-02-28T14:27:42;2.97;;;1.70;;
69678;SDS011;56915;52.046;4.854;2023-02-28T14:31:11;2.83;;;1.70;;
69678;SDS011;56915;52.046;4.854;2023-02-28T14:33:33;3.30;;;1.98;;
69678;SDS011;56915;52.046;4.854;2023-02-28T14:36:25;3.00;;;1.60;;
69678;SDS011;56915;52.046;4.854;2023-02-28T14:39:04;2.50;;;1.65;;
69678;SDS011;56915;52.046;4.854;2023-02-28T14:41:34;3.38;;;1.80;;
69678;SDS011;56915;52.046;4.854;2023-02-28T14:44:24;4.47;;;2.10;;
69678;SDS011;56915;52.046;4.854;2023-02-28T14:46:53;3.08;;;1.80;;
69678;SDS011;56915;52.046;4.854;2023-02-28T14:49:42;2.78;;;1.92;;
69678;SDS011;56915;52.046;4.854;2023-02-28T14:54:38;2.22;;;1.20;;
69678;SDS011;56915;52.046;4.854;2023-02-28T14:57:06;3.80;;;2.00;;
69678;SDS011;56915;52.046;4.854;2023-02-28T14:59:56;3.58;;;1.85;;
69678;SDS011;56915;52.046;4.854;2023-02-28T15:02:41;4.13;;;2.08;;
69678;SDS011;56915;52.046;4.854;2023-02-28T15:07:44;3.42;;;2.00;;
69678;SDS011;56915;52.046;4.854;2023-02-28T15:12:55;2.35;;;1.70;;
69678;SDS011;56915;52.046;4.854;2023-02-28T15:15:27;3.67;;;2.00;;
69678;SDS011;56915;52.046;4.854;2023-02-28T15:21:07;3.83;;;2.60;;
69678;SDS011;56915;52.046;4.854;2023-02-28T15:23:50;7.37;;;2.97;;
69678;SDS011;56915;52.046;4.854;2023-02-28T15:26:27;3.72;;;2.20;;
69678;SDS011;56915;52.046;4.854;2023-02-28T15:29:07;3.97;;;2.38;;
69678;SDS011;56915;52.046;4.854;2023-02-28T15:31:40;3.05;;;2.00;;
69678;SDS011;56915;52.046;4.854;2023-02-28T15:34:39;4.32;;;2.15;;
69678;SDS011;56915;52.046;4.854;2023-02-28T15:39:51;6.32;;;2.08;;
69678;SDS011;56915;52.046;4.854;2023-02-28T15:42:20;3.47;;;2.03;;
69678;SDS011;56915;52.046;4.854;2023-02-28T15:44:49;5.72;;;2.97;;
69678;SDS011;56915;52.046;4.854;2023-02-28T15:50:06;2.40;;;1.60;;
69678;SDS011;56915;52.046;4.854;2023-02-28T15:52:39;4.60;;;2.33;;
69678;SDS011;56915;52.046;4.854;2023-02-28T15:55:18;3.70;;;2.30;;
69678;SDS011;56915;52.046;4.854;2023-02-28T15:57:45;4.25;;;2.28;;
69678;SDS011;56915;52.046;4.854;2023-02-28T16:00:16;6.20;;;2.33;;
69678;SDS011;56915;52.046;4.854;2023-02-28T16:02:46;4.83;;;2.20;;
69678;SDS011;56915;52.046;4.854;2023-02-28T16:05:24;3.78;;;2.38;;
69678;SDS011;56915;52.046;4.854;2023-02-28T16:08:00;3.53;;;1.45;;
69678;SDS011;56915;52.046;4.854;2023-02-28T16:10:37;4.78;;;2.30;;
69678;SDS011;56915;52.046;4.854;2023-02-28T16:13:04;6.18;;;2.63;;
69678;SDS011;56915;52.046;4.854;2023-02-28T16:15:33;4.43;;;2.33;;
69678;SDS011;56915;52.046;4.854;2023-02-28T16:18:08;5.65;;;2.63;;
69678;SDS011;56915;52.046;4.854;2023-02-28T16:20:37;3.10;;;2.00;;
69678;SDS011;56915;52.046;4.854;2023-02-28T16:23:04;6.38;;;2.75;;
69678;SDS011;56915;52.046;4.854;2023-02-28T16:25:35;5.85;;;2.72;;
69678;SDS011;56915;52.046;4.854;2023-02-28T16:28:07;5.37;;;3.20;;
69678;SDS011;56915;52.046;4.854;2023-02-28T16:30:47;3.53;;;1.88;;
69678;SDS011;56915;52.046;4.854;2023-02-28T16:33:17;4.28;;;2.70;;
69678;SDS011;56915;52.046;4.854;2023-02-28T16:35:55;5.07;;;3.20;;
69678;SDS011;56915;52.046;4.854;2023-02-28T16:38:22;3.67;;;2.00;;
69678;SDS011;56915;52.046;4.854;2023-02-28T16:40:51;3.87;;;2.00;;
69678;SDS011;56915;52.046;4.854;2023-02-28T16:43:22;4.88;;;2.25;;
69678;SDS011;56915;52.046;4.854;2023-02-28T16:45:57;4.97;;;3.05;;
69678;SDS011;56915;52.046;4.854;2023-02-28T16:48:26;3.75;;;2.10;;
69678;SDS011;56915;52.046;4.854;2023-02-28T16:50:53;5.82;;;2.78;;
69678;SDS011;56915;52.046;4.854;2023-02-28T16:53:20;5.23;;;3.03;;
69678;SDS011;56915;52.046;4.854;2023-02-28T16:55:47;4.18;;;2.35;;
69678;SDS011;56915;52.046;4.854;2023-02-28T16:58:15;4.32;;;2.45;;
69678;SDS011;56915;52.046;4.854;2023-02-28T17:00:42;5.63;;;2.70;;
69678;SDS011;56915;52.046;4.854;2023-02-28T17:03:24;5.47;;;2.63;;
69678;SDS011;56915;52.046;4.854;2023-02-28T17:05:58;4.57;;;2.87;;
69678;SDS011;56915;52.046;4.854;2023-02-28T17:08:26;4.57;;;2.70;;
69678;SDS011;56915;52.046;4.854;2023-02-28T17:10:55;5.63;;;2.22;;
69678;SDS011;56915;52.046;4.854;2023-02-28T17:13:22;5.78;;;2.38;;
69678;SDS011;56915;52.046;4.854;2023-02-28T17:15:48;5.45;;;2.83;;
69678;SDS011;56915;52.046;4.854;2023-02-28T17:18:16;5.87;;;2.90;;
69678;SDS011;56915;52.046;4.854;2023-02-28T17:20:45;4.72;;;2.53;;
69678;SDS011;56915;52.046;4.854;2023-02-28T17:23:12;4.50;;;2.50;;
69678;SDS011;56915;52.046;4.854;2023-02-28T17:25:39;5.00;;;2.75;;
69678;SDS011;56915;52.046;4.854;2023-02-28T17:28:06;5.13;;;2.65;;
69678;SDS011;56915;52.046;4.854;2023-02-28T17:30:35;5.80;;;3.00;;
69678;SDS011;56915;52.046;4.854;2023-02-28T17:33:02;5.97;;;2.97;;
69678;SDS011;56915;52.046;4.854;2023-02-28T17:35:29;8.82;;;4.18;;
69678;SDS011;56915;52.046;4.854;2023-02-28T17:37:55;8.38;;;3.83;;
69678;SDS011;56915;52.046;4.854;2023-02-28T17:40:23;11.48;;;3.75;;
69678;SDS011;56915;52.046;4.854;2023-02-28T17:42:50;7.63;;;3.77;;
69678;SDS011;56915;52.046;4.854;2023-02-28T17:45:18;6.22;;;3.35;;
69678;SDS011;56915;52.046;4.854;2023-02-28T17:47:47;12.90;;;3.70;;